sensor_id;sensor_type;location;lat;lon;timestamp;temperature;humidity
23122;DHT22;11730;51.248;22.534;2022-07-21T00:02:05;20.10;90.40
23122;DHT22;11730;51.248;22.534;2022-07-21T00:04:32;20.10;90.40
23122;DHT22;11730;51.248;22.534;2022-07-21T00:06:59;20.00;90.80
23122;DHT22;11730;51.248;22.534;2022-07-21T00:09:27;20.00;91.00
23122;DHT22;11730;51.248;22.534;2022-07-21T00:11:54;20.00;91.00
23122;DHT22;11730;51.248;22.534;2022-07-21T00:14:21;19.90;91.20
23122;DHT22;11730;51.248;22.534;2022-07-21T00:16:48;19.90;91.30
23122;DHT22;11730;51.248;22.534;2022-07-21T00:19:15;19.90;91.60
23122;DHT22;11730;51.248;22.534;2022-07-21T00:21:42;19.90;91.50
23122;DHT22;11730;51.248;22.534;2022-07-21T00:24:09;19.90;91.50
23122;DHT22;11730;51.248;22.534;2022-07-21T00:26:36;19.80;91.60
23122;DHT22;11730;51.248;22.534;2022-07-21T00:29:03;19.80;92.20
23122;DHT22;11730;51.248;22.534;2022-07-21T00:31:30;19.80;92.10
23122;DHT22;11730;51.248;22.534;2022-07-21T00:33:57;19.60;92.60
23122;DHT22;11730;51.248;22.534;2022-07-21T00:36:24;19.50;93.00
23122;DHT22;11730;51.248;22.534;2022-07-21T00:38:51;19.60;93.00
23122;DHT22;11730;51.248;22.534;2022-07-21T00:41:19;19.60;92.90
23122;DHT22;11730;51.248;22.534;2022-07-21T00:43:46;19.70;93.10
23122;DHT22;11730;51.248;22.534;2022-07-21T00:46:13;19.70;93.30
23122;DHT22;11730;51.248;22.534;2022-07-21T00:48:40;19.70;93.40
23122;DHT22;11730;51.248;22.534;2022-07-21T00:51:07;19.60;93.70
23122;DHT22;11730;51.248;22.534;2022-07-21T00:53:34;19.60;93.60
23122;DHT22;11730;51.248;22.534;2022-07-21T00:56:01;19.70;93.50
23122;DHT22;11730;51.248;22.534;2022-07-21T00:58:31;19.80;93.40
23122;DHT22;11730;51.248;22.534;2022-07-21T01:00:58;19.50;93.90
23122;DHT22;11730;51.248;22.534;2022-07-21T01:03:26;19.20;94.50
23122;DHT22;11730;51.248;22.534;2022-07-21T01:05:52;19.20;95.20
23122;DHT22;11730;51.248;22.534;2022-07-21T01:08:20;19.10;95.60
23122;DHT22;11730;51.248;22.534;2022-07-21T01:10:47;19.20;95.60
23122;DHT22;11730;51.248;22.534;2022-07-21T01:13:14;19.00;96.40
23122;DHT22;11730;51.248;22.534;2022-07-21T01:15:41;18.80;96.90
23122;DHT22;11730;51.248;22.534;2022-07-21T01:18:09;18.90;97.30
23122;DHT22;11730;51.248;22.534;2022-07-21T01:20:36;18.90;97.30
23122;DHT22;11730;51.248;22.534;2022-07-21T01:23:05;19.00;97.40
23122;DHT22;11730;51.248;22.534;2022-07-21T01:25:32;18.90;97.40
23122;DHT22;11730;51.248;22.534;2022-07-21T01:27:59;18.80;98.30
23122;DHT22;11730;51.248;22.534;2022-07-21T01:30:26;18.70;98.60
23122;DHT22;11730;51.248;22.534;2022-07-21T01:32:53;18.80;98.80
23122;DHT22;11730;51.248;22.534;2022-07-21T01:35:20;18.80;98.80
23122;DHT22;11730;51.248;22.534;2022-07-21T01:37:48;18.90;99.00
23122;DHT22;11730;51.248;22.534;2022-07-21T01:40:16;18.90;98.90
23122;DHT22;11730;51.248;22.534;2022-07-21T01:43:04;18.90;99.20
23122;DHT22;11730;51.248;22.534;2022-07-21T01:45:37;18.80;99.40
23122;DHT22;11730;51.248;22.534;2022-07-21T01:48:05;18.70;99.90
23122;DHT22;11730;51.248;22.534;2022-07-21T01:50:32;18.50;99.90
23122;DHT22;11730;51.248;22.534;2022-07-21T01:52:59;18.40;99.90
23122;DHT22;11730;51.248;22.534;2022-07-21T01:55:26;18.30;99.90
23122;DHT22;11730;51.248;22.534;2022-07-21T01:57:56;18.20;99.90
23122;DHT22;11730;51.248;22.534;2022-07-21T02:00:23;18.10;99.90
23122;DHT22;11730;51.248;22.534;2022-07-21T02:02:50;18.10;99.90
23122;DHT22;11730;51.248;22.534;2022-07-21T02:05:17;18.10;99.90
23122;DHT22;11730;51.248;22.534;2022-07-21T02:07:44;18.20;99.90
23122;DHT22;11730;51.248;22.534;2022-07-21T02:10:11;18.20;99.90
23122;DHT22;11730;51.248;22.534;2022-07-21T02:12:38;18.10;99.90
23122;DHT22;11730;51.248;22.534;2022-07-21T02:15:06;18.30;99.90
23122;DHT22;11730;51.248;22.534;2022-07-21T02:17:33;18.30;99.90
23122;DHT22;11730;51.248;22.534;2022-07-21T02:20:00;18.10;99.90
23122;DHT22;11730;51.248;22.534;2022-07-21T02:22:27;17.90;99.90
23122;DHT22;11730;51.248;22.534;2022-07-21T02:24:54;18.00;99.90
23122;DHT22;11730;51.248;22.534;2022-07-21T02:27:21;17.80;99.90
23122;DHT22;11730;51.248;22.534;2022-07-21T02:29:48;17.70;99.90
23122;DHT22;11730;51.248;22.534;2022-07-21T02:32:15;17.80;99.90
23122;DHT22;11730;51.248;22.534;2022-07-21T02:34:42;17.70;99.90
23122;DHT22;11730;51.248;22.534;2022-07-21T02:37:09;17.70;99.90
23122;DHT22;11730;51.248;22.534;2022-07-21T02:39:36;17.70;99.90
23122;DHT22;11730;51.248;22.534;2022-07-21T02:42:04;17.70;99.90
23122;DHT22;11730;51.248;22.534;2022-07-21T02:44:31;17.70;99.90
23122;DHT22;11730;51.248;22.534;2022-07-21T02:46:58;17.70;99.90
23122;DHT22;11730;51.248;22.534;2022-07-21T02:49:25;17.70;99.90
23122;DHT22;11730;51.248;22.534;2022-07-21T02:51:52;17.70;99.90
23122;DHT22;11730;51.248;22.534;2022-07-21T02:54:19;17.60;99.90
23122;DHT22;11730;51.248;22.534;2022-07-21T02:56:48;17.50;99.90
23122;DHT22;11730;51.248;22.534;2022-07-21T02:59:15;17.60;99.90
23122;DHT22;11730;51.248;22.534;2022-07-21T03:01:42;17.50;99.90
23122;DHT22;11730;51.248;22.534;2022-07-21T03:04:10;17.60;99.90
23122;DHT22;11730;51.248;22.534;2022-07-21T03:06:39;17.60;99.90
23122;DHT22;11730;51.248;22.534;2022-07-21T03:09:06;17.50;99.90
23122;DHT22;11730;51.248;22.534;2022-07-21T03:11:33;17.60;99.90
23122;DHT22;11730;51.248;22.534;2022-07-21T03:14:01;17.40;99.90
23122;DHT22;11730;51.248;22.534;2022-07-21T03:16:28;17.40;99.90
23122;DHT22;11730;51.248;22.534;2022-07-21T03:18:55;17.50;99.90
23122;DHT22;11730;51.248;22.534;2022-07-21T03:21:23;17.50;99.90
23122;DHT22;11730;51.248;22.534;2022-07-21T03:23:50;17.50;99.90
23122;DHT22;11730;51.248;22.534;2022-07-21T03:26:17;17.50;99.90
23122;DHT22;11730;51.248;22.534;2022-07-21T03:28:45;17.60;99.90
23122;DHT22;11730;51.248;22.534;2022-07-21T03:31:12;17.50;99.90
23122;DHT22;11730;51.248;22.534;2022-07-21T03:33:39;17.40;99.90
23122;DHT22;11730;51.248;22.534;2022-07-21T03:36:06;17.50;99.90
23122;DHT22;11730;51.248;22.534;2022-07-21T03:38:34;17.50;99.90
23122;DHT22;11730;51.248;22.534;2022-07-21T03:41:01;17.50;99.90
23122;DHT22;11730;51.248;22.534;2022-07-21T03:43:28;17.50;99.90
23122;DHT22;11730;51.248;22.534;2022-07-21T03:45:55;17.50;99.90
23122;DHT22;11730;51.248;22.534;2022-07-21T03:48:22;17.60;99.90
23122;DHT22;11730;51.248;22.534;2022-07-21T03:50:49;17.60;99.90
23122;DHT22;11730;51.248;22.534;2022-07-21T03:53:16;17.60;99.90
23122;DHT22;11730;51.248;22.534;2022-07-21T03:55:43;17.60;99.90
23122;DHT22;11730;51.248;22.534;2022-07-21T03:58:11;17.70;99.90
23122;DHT22;11730;51.248;22.534;2022-07-21T04:00:41;17.80;99.90
23122;DHT22;11730;51.248;22.534;2022-07-21T04:03:08;17.80;99.90
23122;DHT22;11730;51.248;22.534;2022-07-21T04:05:37;17.90;99.90
23122;DHT22;11730;51.248;22.534;2022-07-21T04:08:05;18.00;99.90
23122;DHT22;11730;51.248;22.534;2022-07-21T04:10:34;18.10;99.90
23122;DHT22;11730;51.248;22.534;2022-07-21T04:13:04;18.30;99.90
23122;DHT22;11730;51.248;22.534;2022-07-21T04:15:32;18.40;99.90
23122;DHT22;11730;51.248;22.534;2022-07-21T04:17:59;18.50;99.90
23122;DHT22;11730;51.248;22.534;2022-07-21T04:20:27;18.40;99.90
23122;DHT22;11730;51.248;22.534;2022-07-21T04:22:54;18.50;99.90
23122;DHT22;11730;51.248;22.534;2022-07-21T04:25:22;18.60;99.90
23122;DHT22;11730;51.248;22.534;2022-07-21T04:27:50;18.70;99.90
23122;DHT22;11730;51.248;22.534;2022-07-21T04:30:19;18.80;99.90
23122;DHT22;11730;51.248;22.534;2022-07-21T04:32:47;18.80;99.90
23122;DHT22;11730;51.248;22.534;2022-07-21T04:35:14;18.90;99.90
23122;DHT22;11730;51.248;22.534;2022-07-21T04:37:42;19.10;99.90
23122;DHT22;11730;51.248;22.534;2022-07-21T04:40:10;19.00;99.90
23122;DHT22;11730;51.248;22.534;2022-07-21T04:42:38;19.20;99.90
23122;DHT22;11730;51.248;22.534;2022-07-21T04:45:07;19.30;99.90
23122;DHT22;11730;51.248;22.534;2022-07-21T04:47:45;19.30;99.90
23122;DHT22;11730;51.248;22.534;2022-07-21T04:50:12;19.40;99.90
23122;DHT22;11730;51.248;22.534;2022-07-21T04:52:40;19.40;99.90
23122;DHT22;11730;51.248;22.534;2022-07-21T04:55:09;19.50;99.80
23122;DHT22;11730;51.248;22.534;2022-07-21T04:57:39;19.60;99.90
23122;DHT22;11730;51.248;22.534;2022-07-21T05:00:08;19.60;99.80
23122;DHT22;11730;51.248;22.534;2022-07-21T05:02:36;19.70;99.10
23122;DHT22;11730;51.248;22.534;2022-07-21T05:05:04;19.80;99.20
23122;DHT22;11730;51.248;22.534;2022-07-21T05:07:31;19.80;98.60
23122;DHT22;11730;51.248;22.534;2022-07-21T05:09:58;19.90;98.20
23122;DHT22;11730;51.248;22.534;2022-07-21T05:12:26;19.90;96.10
23122;DHT22;11730;51.248;22.534;2022-07-21T05:14:53;20.00;95.90
23122;DHT22;11730;51.248;22.534;2022-07-21T05:17:20;20.10;95.90
23122;DHT22;11730;51.248;22.534;2022-07-21T05:19:47;20.00;94.90
23122;DHT22;11730;51.248;22.534;2022-07-21T05:22:24;20.00;94.20
23122;DHT22;11730;51.248;22.534;2022-07-21T05:24:52;20.10;94.20
23122;DHT22;11730;51.248;22.534;2022-07-21T05:27:19;20.10;92.20
23122;DHT22;11730;51.248;22.534;2022-07-21T05:29:46;20.20;93.20
23122;DHT22;11730;51.248;22.534;2022-07-21T05:32:13;20.20;92.50
23122;DHT22;11730;51.248;22.534;2022-07-21T05:34:41;20.20;92.70
23122;DHT22;11730;51.248;22.534;2022-07-21T05:37:08;20.20;92.70
23122;DHT22;11730;51.248;22.534;2022-07-21T05:39:35;20.20;92.10
23122;DHT22;11730;51.248;22.534;2022-07-21T05:42:02;20.40;92.00
23122;DHT22;11730;51.248;22.534;2022-07-21T05:44:29;20.50;91.60
23122;DHT22;11730;51.248;22.534;2022-07-21T05:46:56;20.50;91.70
23122;DHT22;11730;51.248;22.534;2022-07-21T05:49:24;20.50;92.20
23122;DHT22;11730;51.248;22.534;2022-07-21T05:51:51;20.50;92.50
23122;DHT22;11730;51.248;22.534;2022-07-21T05:54:18;20.60;92.80
23122;DHT22;11730;51.248;22.534;2022-07-21T05:56:45;20.70;92.10
23122;DHT22;11730;51.248;22.534;2022-07-21T05:59:12;20.80;91.70
23122;DHT22;11730;51.248;22.534;2022-07-21T06:01:39;20.80;91.10
23122;DHT22;11730;51.248;22.534;2022-07-21T06:04:06;20.80;91.50
23122;DHT22;11730;51.248;22.534;2022-07-21T06:06:33;20.80;91.00
23122;DHT22;11730;51.248;22.534;2022-07-21T06:09:00;20.90;91.00
23122;DHT22;11730;51.248;22.534;2022-07-21T06:11:27;21.10;91.20
23122;DHT22;11730;51.248;22.534;2022-07-21T06:14:02;21.20;90.40
23122;DHT22;11730;51.248;22.534;2022-07-21T06:16:29;21.20;90.40
23122;DHT22;11730;51.248;22.534;2022-07-21T06:18:56;21.20;90.10
23122;DHT22;11730;51.248;22.534;2022-07-21T06:21:23;21.30;89.90
23122;DHT22;11730;51.248;22.534;2022-07-21T06:23:50;21.30;90.00
23122;DHT22;11730;51.248;22.534;2022-07-21T06:26:18;21.40;90.30
23122;DHT22;11730;51.248;22.534;2022-07-21T06:28:45;21.50;90.30
23122;DHT22;11730;51.248;22.534;2022-07-21T06:31:13;21.50;90.10
23122;DHT22;11730;51.248;22.534;2022-07-21T06:33:40;21.60;88.10
23122;DHT22;11730;51.248;22.534;2022-07-21T06:36:07;21.60;88.00
23122;DHT22;11730;51.248;22.534;2022-07-21T06:38:34;21.60;87.70
23122;DHT22;11730;51.248;22.534;2022-07-21T06:41:02;21.60;87.10
23122;DHT22;11730;51.248;22.534;2022-07-21T06:43:29;21.70;87.70
23122;DHT22;11730;51.248;22.534;2022-07-21T06:45:57;21.80;88.90
23122;DHT22;11730;51.248;22.534;2022-07-21T06:48:24;21.80;87.30
23122;DHT22;11730;51.248;22.534;2022-07-21T06:50:53;21.80;88.00
23122;DHT22;11730;51.248;22.534;2022-07-21T06:53:21;21.90;86.40
23122;DHT22;11730;51.248;22.534;2022-07-21T06:55:48;21.90;88.20
23122;DHT22;11730;51.248;22.534;2022-07-21T06:58:28;21.90;87.50
23122;DHT22;11730;51.248;22.534;2022-07-21T07:01:00;22.00;88.50
23122;DHT22;11730;51.248;22.534;2022-07-21T07:03:27;22.00;88.20
23122;DHT22;11730;51.248;22.534;2022-07-21T07:05:54;22.00;87.60
23122;DHT22;11730;51.248;22.534;2022-07-21T07:08:21;22.10;89.30
23122;DHT22;11730;51.248;22.534;2022-07-21T07:10:48;22.20;89.60
23122;DHT22;11730;51.248;22.534;2022-07-21T07:13:15;22.30;88.70
23122;DHT22;11730;51.248;22.534;2022-07-21T07:16:04;22.50;88.00
23122;DHT22;11730;51.248;22.534;2022-07-21T07:18:31;22.50;89.20
23122;DHT22;11730;51.248;22.534;2022-07-21T07:20:59;22.70;89.00
23122;DHT22;11730;51.248;22.534;2022-07-21T07:23:26;22.70;87.20
23122;DHT22;11730;51.248;22.534;2022-07-21T07:25:53;22.80;88.70
23122;DHT22;11730;51.248;22.534;2022-07-21T07:28:19;22.90;87.40
23122;DHT22;11730;51.248;22.534;2022-07-21T07:30:46;23.20;88.40
23122;DHT22;11730;51.248;22.534;2022-07-21T07:33:15;23.30;90.00
23122;DHT22;11730;51.248;22.534;2022-07-21T07:35:42;23.40;86.10
23122;DHT22;11730;51.248;22.534;2022-07-21T07:38:13;23.50;86.40
23122;DHT22;11730;51.248;22.534;2022-07-21T07:40:41;23.70;86.40
23122;DHT22;11730;51.248;22.534;2022-07-21T07:43:08;24.00;87.50
23122;DHT22;11730;51.248;22.534;2022-07-21T07:45:36;24.10;85.20
23122;DHT22;11730;51.248;22.534;2022-07-21T07:48:05;24.40;82.00
23122;DHT22;11730;51.248;22.534;2022-07-21T07:50:32;24.60;80.90
23122;DHT22;11730;51.248;22.534;2022-07-21T07:52:59;24.70;80.80
23122;DHT22;11730;51.248;22.534;2022-07-21T07:55:26;24.80;80.80
23122;DHT22;11730;51.248;22.534;2022-07-21T07:57:53;24.90;79.40
23122;DHT22;11730;51.248;22.534;2022-07-21T08:00:20;25.20;79.00
23122;DHT22;11730;51.248;22.534;2022-07-21T08:03:07;25.30;80.30
23122;DHT22;11730;51.248;22.534;2022-07-21T08:05:34;25.60;78.50
23122;DHT22;11730;51.248;22.534;2022-07-21T08:08:01;25.90;76.60
23122;DHT22;11730;51.248;22.534;2022-07-21T08:10:28;26.10;75.70
23122;DHT22;11730;51.248;22.534;2022-07-21T08:13:12;25.90;75.10
23122;DHT22;11730;51.248;22.534;2022-07-21T08:15:40;25.60;74.50
23122;DHT22;11730;51.248;22.534;2022-07-21T08:18:07;25.80;75.00
23122;DHT22;11730;51.248;22.534;2022-07-21T08:20:35;26.20;74.10
23122;DHT22;11730;51.248;22.534;2022-07-21T08:23:03;26.30;76.50
23122;DHT22;11730;51.248;22.534;2022-07-21T08:25:31;26.50;75.90
23122;DHT22;11730;51.248;22.534;2022-07-21T08:27:58;26.90;74.60
23122;DHT22;11730;51.248;22.534;2022-07-21T08:30:25;27.20;72.00
23122;DHT22;11730;51.248;22.534;2022-07-21T08:32:57;27.10;71.10
23122;DHT22;11730;51.248;22.534;2022-07-21T08:35:25;27.20;71.20
23122;DHT22;11730;51.248;22.534;2022-07-21T08:37:55;27.60;70.10
23122;DHT22;11730;51.248;22.534;2022-07-21T08:40:23;27.90;69.40
23122;DHT22;11730;51.248;22.534;2022-07-21T08:42:52;28.20;69.20
23122;DHT22;11730;51.248;22.534;2022-07-21T08:45:19;27.40;70.20
23122;DHT22;11730;51.248;22.534;2022-07-21T08:47:54;27.20;69.90
23122;DHT22;11730;51.248;22.534;2022-07-21T08:50:23;27.50;69.30
23122;DHT22;11730;51.248;22.534;2022-07-21T08:52:51;27.80;69.80
23122;DHT22;11730;51.248;22.534;2022-07-21T08:55:28;27.20;67.10
23122;DHT22;11730;51.248;22.534;2022-07-21T08:57:56;26.90;69.70
23122;DHT22;11730;51.248;22.534;2022-07-21T09:00:23;27.10;70.70
23122;DHT22;11730;51.248;22.534;2022-07-21T09:03:17;27.40;70.20
23122;DHT22;11730;51.248;22.534;2022-07-21T09:08:36;28.00;67.20
23122;DHT22;11730;51.248;22.534;2022-07-21T09:11:14;28.20;69.70
23122;DHT22;11730;51.248;22.534;2022-07-21T09:13:42;28.30;67.30
23122;DHT22;11730;51.248;22.534;2022-07-21T09:16:10;28.30;67.90
23122;DHT22;11730;51.248;22.534;2022-07-21T09:18:51;28.60;67.10
23122;DHT22;11730;51.248;22.534;2022-07-21T09:21:19;28.30;65.00
23122;DHT22;11730;51.248;22.534;2022-07-21T09:23:46;27.30;64.90
23122;DHT22;11730;51.248;22.534;2022-07-21T09:26:13;27.30;66.40
23122;DHT22;11730;51.248;22.534;2022-07-21T09:28:41;28.00;66.60
23122;DHT22;11730;51.248;22.534;2022-07-21T09:31:10;28.00;68.20
23122;DHT22;11730;51.248;22.534;2022-07-21T09:33:43;28.60;67.00
23122;DHT22;11730;51.248;22.534;2022-07-21T09:36:13;28.90;64.50
23122;DHT22;11730;51.248;22.534;2022-07-21T09:41:17;29.30;66.60
23122;DHT22;11730;51.248;22.534;2022-07-21T09:43:46;28.80;62.80
23122;DHT22;11730;51.248;22.534;2022-07-21T09:46:27;28.80;66.00
23122;DHT22;11730;51.248;22.534;2022-07-21T09:48:57;28.80;65.70
23122;DHT22;11730;51.248;22.534;2022-07-21T09:51:44;28.70;63.40
23122;DHT22;11730;51.248;22.534;2022-07-21T09:54:12;28.30;64.80
23122;DHT22;11730;51.248;22.534;2022-07-21T09:56:44;28.40;67.30
23122;DHT22;11730;51.248;22.534;2022-07-21T09:59:13;28.40;63.00
23122;DHT22;11730;51.248;22.534;2022-07-21T10:01:40;29.30;66.10
23122;DHT22;11730;51.248;22.534;2022-07-21T10:04:08;29.60;65.20
23122;DHT22;11730;51.248;22.534;2022-07-21T10:06:38;29.50;63.50
23122;DHT22;11730;51.248;22.534;2022-07-21T10:09:08;28.80;61.70
23122;DHT22;11730;51.248;22.534;2022-07-21T10:11:39;29.20;64.20
23122;DHT22;11730;51.248;22.534;2022-07-21T10:14:11;29.40;63.10
23122;DHT22;11730;51.248;22.534;2022-07-21T10:16:38;29.60;63.40
23122;DHT22;11730;51.248;22.534;2022-07-21T10:19:27;30.00;65.10
23122;DHT22;11730;51.248;22.534;2022-07-21T10:22:04;30.20;61.30
23122;DHT22;11730;51.248;22.534;2022-07-21T10:24:34;30.30;64.60
23122;DHT22;11730;51.248;22.534;2022-07-21T10:27:05;31.00;62.50
23122;DHT22;11730;51.248;22.534;2022-07-21T10:32:15;31.40;61.30
23122;DHT22;11730;51.248;22.534;2022-07-21T10:34:42;32.20;59.10
23122;DHT22;11730;51.248;22.534;2022-07-21T10:37:10;32.80;59.10
23122;DHT22;11730;51.248;22.534;2022-07-21T10:39:39;33.10;58.10
23122;DHT22;11730;51.248;22.534;2022-07-21T10:42:16;33.40;57.90
23122;DHT22;11730;51.248;22.534;2022-07-21T10:44:44;33.50;55.50
23122;DHT22;11730;51.248;22.534;2022-07-21T10:47:22;33.30;55.40
23122;DHT22;11730;51.248;22.534;2022-07-21T10:50:03;33.10;55.90
23122;DHT22;11730;51.248;22.534;2022-07-21T10:55:17;32.50;56.50
23122;DHT22;11730;51.248;22.534;2022-07-21T10:58:14;32.30;56.40
23122;DHT22;11730;51.248;22.534;2022-07-21T11:00:46;32.10;57.60
23122;DHT22;11730;51.248;22.534;2022-07-21T11:11:18;32.90;57.60
23122;DHT22;11730;51.248;22.534;2022-07-21T11:24:44;32.40;55.30
23122;DHT22;11730;51.248;22.534;2022-07-21T11:27:14;32.10;54.40
23122;DHT22;11730;51.248;22.534;2022-07-21T11:29:43;35.00;54.00
23122;DHT22;11730;51.248;22.534;2022-07-21T11:32:11;36.30;50.80
23122;DHT22;11730;51.248;22.534;2022-07-21T11:37:16;34.80;49.90
23122;DHT22;11730;51.248;22.534;2022-07-21T11:42:31;33.20;53.60
23122;DHT22;11730;51.248;22.534;2022-07-21T11:44:59;33.70;54.70
23122;DHT22;11730;51.248;22.534;2022-07-21T11:47:26;34.50;52.70
23122;DHT22;11730;51.248;22.534;2022-07-21T11:49:58;34.30;52.30
23122;DHT22;11730;51.248;22.534;2022-07-21T11:52:27;34.20;51.10
23122;DHT22;11730;51.248;22.534;2022-07-21T11:54:56;35.20;51.50
23122;DHT22;11730;51.248;22.534;2022-07-21T11:57:25;36.00;50.10
23122;DHT22;11730;51.248;22.534;2022-07-21T11:59:54;36.90;50.50
23122;DHT22;11730;51.248;22.534;2022-07-21T12:02:23;37.20;48.60
23122;DHT22;11730;51.248;22.534;2022-07-21T12:07:33;36.70;51.30
23122;DHT22;11730;51.248;22.534;2022-07-21T12:10:04;34.30;50.80
23122;DHT22;11730;51.248;22.534;2022-07-21T12:12:44;34.50;50.50
23122;DHT22;11730;51.248;22.534;2022-07-21T12:15:26;34.90;51.80
23122;DHT22;11730;51.248;22.534;2022-07-21T12:18:04;34.20;52.00
23122;DHT22;11730;51.248;22.534;2022-07-21T12:20:40;35.30;51.80
23122;DHT22;11730;51.248;22.534;2022-07-21T12:23:28;35.00;49.90
23122;DHT22;11730;51.248;22.534;2022-07-21T12:25:58;36.30;48.30
23122;DHT22;11730;51.248;22.534;2022-07-21T12:28:50;34.50;49.60
23122;DHT22;11730;51.248;22.534;2022-07-21T12:31:22;34.20;49.80
23122;DHT22;11730;51.248;22.534;2022-07-21T12:33:52;33.70;51.10
23122;DHT22;11730;51.248;22.534;2022-07-21T12:36:44;33.50;51.80
23122;DHT22;11730;51.248;22.534;2022-07-21T12:39:16;34.20;52.60
23122;DHT22;11730;51.248;22.534;2022-07-21T12:42:10;33.40;51.00
23122;DHT22;11730;51.248;22.534;2022-07-21T12:44:38;34.00;52.30
23122;DHT22;11730;51.248;22.534;2022-07-21T12:47:18;33.20;54.20
23122;DHT22;11730;51.248;22.534;2022-07-21T12:50:02;33.30;53.10
23122;DHT22;11730;51.248;22.534;2022-07-21T12:52:49;32.90;53.50
23122;DHT22;11730;51.248;22.534;2022-07-21T12:55:18;33.40;54.40
23122;DHT22;11730;51.248;22.534;2022-07-21T12:57:45;33.60;54.60
23122;DHT22;11730;51.248;22.534;2022-07-21T13:00:13;33.00;53.80
23122;DHT22;11730;51.248;22.534;2022-07-21T13:02:51;33.50;53.20
23122;DHT22;11730;51.248;22.534;2022-07-21T13:05:21;34.00;52.00
23122;DHT22;11730;51.248;22.534;2022-07-21T13:07:50;32.60;51.30
23122;DHT22;11730;51.248;22.534;2022-07-21T13:10:20;33.00;52.20
23122;DHT22;11730;51.248;22.534;2022-07-21T13:12:48;32.60;52.50
23122;DHT22;11730;51.248;22.534;2022-07-21T13:15:18;32.10;54.20
23122;DHT22;11730;51.248;22.534;2022-07-21T13:17:45;32.40;55.40
23122;DHT22;11730;51.248;22.534;2022-07-21T13:20:13;32.50;54.70
23122;DHT22;11730;51.248;22.534;2022-07-21T13:22:41;33.00;54.10
23122;DHT22;11730;51.248;22.534;2022-07-21T13:25:10;32.60;55.70
23122;DHT22;11730;51.248;22.534;2022-07-21T13:27:38;32.60;54.90
23122;DHT22;11730;51.248;22.534;2022-07-21T13:30:10;33.60;54.30
23122;DHT22;11730;51.248;22.534;2022-07-21T13:32:38;33.70;54.90
23122;DHT22;11730;51.248;22.534;2022-07-21T13:35:07;33.10;53.20
23122;DHT22;11730;51.248;22.534;2022-07-21T13:37:52;33.00;52.10
23122;DHT22;11730;51.248;22.534;2022-07-21T13:40:19;32.80;53.70
23122;DHT22;11730;51.248;22.534;2022-07-21T13:43:07;34.00;52.60
23122;DHT22;11730;51.248;22.534;2022-07-21T13:45:56;34.20;52.20
23122;DHT22;11730;51.248;22.534;2022-07-21T13:48:24;33.70;53.40
23122;DHT22;11730;51.248;22.534;2022-07-21T13:50:52;34.20;54.10
23122;DHT22;11730;51.248;22.534;2022-07-21T13:53:19;34.60;52.70
23122;DHT22;11730;51.248;22.534;2022-07-21T13:55:47;34.80;52.30
23122;DHT22;11730;51.248;22.534;2022-07-21T13:58:18;35.20;51.10
23122;DHT22;11730;51.248;22.534;2022-07-21T14:00:48;35.50;51.40
23122;DHT22;11730;51.248;22.534;2022-07-21T14:03:16;35.10;50.30
23122;DHT22;11730;51.248;22.534;2022-07-21T14:05:43;34.90;50.10
23122;DHT22;11730;51.248;22.534;2022-07-21T14:08:11;34.50;50.90
23122;DHT22;11730;51.248;22.534;2022-07-21T14:10:38;34.60;50.80
23122;DHT22;11730;51.248;22.534;2022-07-21T14:13:06;32.80;50.60
23122;DHT22;11730;51.248;22.534;2022-07-21T14:15:33;33.60;53.00
23122;DHT22;11730;51.248;22.534;2022-07-21T14:18:01;34.30;53.20
23122;DHT22;11730;51.248;22.534;2022-07-21T14:20:28;34.80;52.40
23122;DHT22;11730;51.248;22.534;2022-07-21T14:22:56;35.20;51.90
23122;DHT22;11730;51.248;22.534;2022-07-21T14:25:24;34.90;51.70
23122;DHT22;11730;51.248;22.534;2022-07-21T14:27:54;34.20;52.70
23122;DHT22;11730;51.248;22.534;2022-07-21T14:30:23;34.50;51.80
23122;DHT22;11730;51.248;22.534;2022-07-21T14:32:54;33.50;53.00
23122;DHT22;11730;51.248;22.534;2022-07-21T14:35:22;33.50;54.50
23122;DHT22;11730;51.248;22.534;2022-07-21T14:37:54;34.00;53.10
23122;DHT22;11730;51.248;22.534;2022-07-21T14:40:22;34.70;51.90
23122;DHT22;11730;51.248;22.534;2022-07-21T14:42:52;34.80;50.70
23122;DHT22;11730;51.248;22.534;2022-07-21T14:45:22;34.20;52.80
23122;DHT22;11730;51.248;22.534;2022-07-21T14:47:51;34.50;51.30
23122;DHT22;11730;51.248;22.534;2022-07-21T14:50:21;33.70;52.90
23122;DHT22;11730;51.248;22.534;2022-07-21T14:52:57;34.00;51.80
23122;DHT22;11730;51.248;22.534;2022-07-21T14:55:28;33.40;54.00
23122;DHT22;11730;51.248;22.534;2022-07-21T14:57:57;33.50;53.20
23122;DHT22;11730;51.248;22.534;2022-07-21T15:00:24;34.00;52.70
23122;DHT22;11730;51.248;22.534;2022-07-21T15:02:53;33.40;53.20
23122;DHT22;11730;51.248;22.534;2022-07-21T15:05:22;33.10;53.10
23122;DHT22;11730;51.248;22.534;2022-07-21T15:07:50;33.30;53.50
23122;DHT22;11730;51.248;22.534;2022-07-21T15:10:17;33.10;53.30
23122;DHT22;11730;51.248;22.534;2022-07-21T15:12:45;33.30;51.70
23122;DHT22;11730;51.248;22.534;2022-07-21T15:15:14;33.50;53.00
23122;DHT22;11730;51.248;22.534;2022-07-21T15:17:41;33.40;53.80
23122;DHT22;11730;51.248;22.534;2022-07-21T15:20:09;33.70;53.60
23122;DHT22;11730;51.248;22.534;2022-07-21T15:22:40;33.30;53.80
23122;DHT22;11730;51.248;22.534;2022-07-21T15:25:09;32.70;54.10
23122;DHT22;11730;51.248;22.534;2022-07-21T15:27:41;32.70;55.90
23122;DHT22;11730;51.248;22.534;2022-07-21T15:30:13;32.60;55.00
23122;DHT22;11730;51.248;22.534;2022-07-21T15:32:41;32.60;53.40
23122;DHT22;11730;51.248;22.534;2022-07-21T15:35:10;32.70;54.30
23122;DHT22;11730;51.248;22.534;2022-07-21T15:37:38;32.60;54.70
23122;DHT22;11730;51.248;22.534;2022-07-21T15:40:07;32.40;55.90
23122;DHT22;11730;51.248;22.534;2022-07-21T15:42:35;32.60;54.80
23122;DHT22;11730;51.248;22.534;2022-07-21T15:45:05;33.00;54.60
23122;DHT22;11730;51.248;22.534;2022-07-21T15:47:32;32.10;53.40
23122;DHT22;11730;51.248;22.534;2022-07-21T15:49:59;32.10;53.90
23122;DHT22;11730;51.248;22.534;2022-07-21T15:52:26;31.80;56.30
23122;DHT22;11730;51.248;22.534;2022-07-21T15:54:56;31.80;55.80
23122;DHT22;11730;51.248;22.534;2022-07-21T15:57:27;31.60;56.20
23122;DHT22;11730;51.248;22.534;2022-07-21T15:59:54;31.60;56.90
23122;DHT22;11730;51.248;22.534;2022-07-21T16:02:22;31.40;56.70
23122;DHT22;11730;51.248;22.534;2022-07-21T16:04:49;31.40;57.60
23122;DHT22;11730;51.248;22.534;2022-07-21T16:07:17;31.40;56.70